sensor_id;sensor_type;location;lat;lon;timestamp;pressure;altitude;pressure_sealevel;temperature;humidity
39681;BME280;26327;42.550;23.120;2023-02-23T07:19:37;92744.81;;;10.20;67.55
39681;BME280;26327;42.550;23.120;2023-02-23T07:22:03;92689.81;;;10.67;64.94
39681;BME280;26327;42.550;23.120;2023-02-23T07:24:29;92688.25;;;11.93;58.06
39681;BME280;26327;42.550;23.120;2023-02-23T07:26:54;92752.91;;;13.19;54.15
39681;BME280;26327;42.550;23.120;2023-02-23T07:29:20;92674.00;;;12.98;51.42
39681;BME280;26327;42.550;23.120;2023-02-23T07:31:48;92740.31;;;13.49;50.79
39681;BME280;26327;42.550;23.120;2023-02-23T07:34:14;92726.84;;;13.26;50.62
39681;BME280;26327;42.550;23.120;2023-02-23T07:36:40;92682.41;;;12.80;52.12
39681;BME280;26327;42.550;23.120;2023-02-23T07:39:05;92725.34;;;12.97;52.29
39681;BME280;26327;42.550;23.120;2023-02-23T07:41:31;92722.66;;;12.71;51.83
39681;BME280;26327;42.550;23.120;2023-02-23T07:43:57;92693.09;;;12.44;52.38
39681;BME280;26327;42.550;23.120;2023-02-23T07:46:23;92721.38;;;12.47;52.93
39681;BME280;26327;42.550;23.120;2023-02-23T07:48:49;92738.56;;;12.35;53.93
39681;BME280;26327;42.550;23.120;2023-02-23T07:51:15;92614.56;;;11.64;54.13
39681;BME280;26327;42.550;23.120;2023-02-23T07:53:42;92720.56;;;12.05;55.10
39681;BME280;26327;42.550;23.120;2023-02-23T07:56:09;92717.72;;;11.72;56.73
39681;BME280;26327;42.550;23.120;2023-02-23T07:58:42;92700.31;;;11.45;57.45
39681;BME280;26327;42.550;23.120;2023-02-23T08:01:08;92727.03;;;11.60;57.32
39681;BME280;26327;42.550;23.120;2023-02-23T08:03:34;92664.88;;;11.16;57.55
39681;BME280;26327;42.550;23.120;2023-02-23T08:05:59;92722.22;;;11.57;57.89
39681;BME280;26327;42.550;23.120;2023-02-23T08:08:26;92726.31;;;11.73;57.72
39681;BME280;26327;42.550;23.120;2023-02-23T08:10:58;92712.56;;;12.07;57.23
39681;BME280;26327;42.550;23.120;2023-02-23T08:13:24;92663.22;;;13.27;53.63
39681;BME280;26327;42.550;23.120;2023-02-23T08:15:49;92709.19;;;15.66;47.08
39681;BME280;26327;42.550;23.120;2023-02-23T08:18:14;92659.25;;;17.61;40.46
39681;BME280;26327;42.550;23.120;2023-02-23T08:20:40;92658.97;;;19.53;35.17
39681;BME280;26327;42.550;23.120;2023-02-23T08:23:05;92651.94;;;21.45;31.37
39681;BME280;26327;42.550;23.120;2023-02-23T08:25:30;92654.66;;;23.44;28.38
39681;BME280;26327;42.550;23.120;2023-02-23T08:27:57;92650.63;;;24.69;26.32
39681;BME280;26327;42.550;23.120;2023-02-23T08:30:28;92673.31;;;26.04;24.21
39681;BME280;26327;42.550;23.120;2023-02-23T08:32:54;92693.81;;;26.38;24.03
39681;BME280;26327;42.550;23.120;2023-02-23T08:35:20;92670.38;;;27.35;22.41
39681;BME280;26327;42.550;23.120;2023-02-23T08:37:45;92649.56;;;27.94;21.99
39681;BME280;26327;42.550;23.120;2023-02-23T08:40:11;92664.25;;;29.43;20.03
39681;BME280;26327;42.550;23.120;2023-02-23T08:42:40;92649.69;;;30.30;19.06
39681;BME280;26327;42.550;23.120;2023-02-23T08:45:06;92651.31;;;30.18;18.86
39681;BME280;26327;42.550;23.120;2023-02-23T08:47:32;92684.44;;;31.46;17.97
39681;BME280;26327;42.550;23.120;2023-02-23T08:49:59;92654.53;;;31.21;18.00
39681;BME280;26327;42.550;23.120;2023-02-23T08:52:24;92650.25;;;32.29;16.95
39681;BME280;26327;42.550;23.120;2023-02-23T08:54:50;92679.44;;;32.82;16.51
39681;BME280;26327;42.550;23.120;2023-02-23T08:57:15;92652.91;;;33.40;15.94
39681;BME280;26327;42.550;23.120;2023-02-23T08:59:41;92646.59;;;32.98;15.71
39681;BME280;26327;42.550;23.120;2023-02-23T09:02:11;92658.50;;;33.85;15.49
39681;BME280;26327;42.550;23.120;2023-02-23T09:04:37;92667.44;;;34.39;14.79
39681;BME280;26327;42.550;23.120;2023-02-23T09:07:04;92646.25;;;35.20;14.58
39681;BME280;26327;42.550;23.120;2023-02-23T09:09:29;92678.63;;;34.08;15.41
39681;BME280;26327;42.550;23.120;2023-02-23T09:11:55;92654.66;;;34.28;14.88
39681;BME280;26327;42.550;23.120;2023-02-23T09:14:20;92682.75;;;35.38;14.18
39681;BME280;26327;42.550;23.120;2023-02-23T09:16:46;92648.16;;;34.29;15.15
39681;BME280;26327;42.550;23.120;2023-02-23T09:19:12;92647.88;;;36.10;14.13
39681;BME280;26327;42.550;23.120;2023-02-23T09:21:38;92672.47;;;36.45;13.58
39681;BME280;26327;42.550;23.120;2023-02-23T09:24:04;92613.50;;;35.58;13.27
39681;BME280;26327;42.550;23.120;2023-02-23T09:26:30;92687.59;;;36.62;13.19
39681;BME280;26327;42.550;23.120;2023-02-23T09:28:58;92653.44;;;37.32;12.94
39681;BME280;26327;42.550;23.120;2023-02-23T09:31:24;92691.97;;;37.10;12.72
39681;BME280;26327;42.550;23.120;2023-02-23T09:33:50;92644.38;;;37.25;12.71
39681;BME280;26327;42.550;23.120;2023-02-23T09:36:21;92658.28;;;37.90;12.45
39681;BME280;26327;42.550;23.120;2023-02-23T09:38:49;92691.22;;;38.42;12.06
39681;BME280;26327;42.550;23.120;2023-02-23T09:46:37;92698.63;;;38.84;11.81
39681;BME280;26327;42.550;23.120;2023-02-23T09:49:09;92686.78;;;38.34;12.14
39681;BME280;26327;42.550;23.120;2023-02-23T09:51:39;92692.25;;;38.57;11.78
39681;BME280;26327;42.550;23.120;2023-02-23T09:54:11;92679.66;;;40.02;11.08
39681;BME280;26327;42.550;23.120;2023-02-23T09:56:47;92695.66;;;40.07;11.16
39681;BME280;26327;42.550;23.120;2023-02-23T09:59:16;92685.66;;;40.15;10.76
39681;BME280;26327;42.550;23.120;2023-02-23T10:04:22;92578.34;;;39.07;10.61
39681;BME280;26327;42.550;23.120;2023-02-23T10:17:58;92682.19;;;39.91;10.80
39681;BME280;26327;42.550;23.120;2023-02-23T10:20:44;92672.16;;;40.85;10.75
39681;BME280;26327;42.550;23.120;2023-02-23T10:23:20;92643.81;;;40.94;9.82
39681;BME280;26327;42.550;23.120;2023-02-23T10:25:49;92676.69;;;41.11;10.20
39681;BME280;26327;42.550;23.120;2023-02-23T10:28:18;92662.53;;;40.62;10.23
39681;BME280;26327;42.550;23.120;2023-02-23T10:30:46;92658.25;;;40.01;10.72
39681;BME280;26327;42.550;23.120;2023-02-23T10:33:21;92645.94;;;40.74;11.15
39681;BME280;26327;42.550;23.120;2023-02-23T10:35:52;92657.63;;;40.74;11.52
39681;BME280;26327;42.550;23.120;2023-02-23T10:38:19;92616.75;;;40.74;11.09
39681;BME280;26327;42.550;23.120;2023-02-23T10:40:49;92643.13;;;41.44;10.60
39681;BME280;26327;42.550;23.120;2023-02-23T10:43:15;92656.44;;;42.08;9.76
39681;BME280;26327;42.550;23.120;2023-02-23T10:45:45;92640.09;;;41.57;10.13
39681;BME280;26327;42.550;23.120;2023-02-23T10:48:28;92608.81;;;42.02;9.63
39681;BME280;26327;42.550;23.120;2023-02-23T10:50:57;92639.75;;;42.17;9.33
39681;BME280;26327;42.550;23.120;2023-02-23T10:53:31;92652.41;;;41.84;9.72
39681;BME280;26327;42.550;23.120;2023-02-23T10:56:17;92600.75;;;41.58;9.79
39681;BME280;26327;42.550;23.120;2023-02-23T10:58:46;92622.38;;;41.80;10.07
39681;BME280;26327;42.550;23.120;2023-02-23T11:01:15;92635.00;;;41.55;9.23
39681;BME280;26327;42.550;23.120;2023-02-23T11:03:47;92626.81;;;42.10;9.42
39681;BME280;26327;42.550;23.120;2023-02-23T11:06:33;92589.28;;;42.87;9.42
39681;BME280;26327;42.550;23.120;2023-02-23T11:09:17;92622.09;;;42.97;8.79
39681;BME280;26327;42.550;23.120;2023-02-23T11:12:00;92585.78;;;42.97;9.00
39681;BME280;26327;42.550;23.120;2023-02-23T11:14:29;92619.03;;;38.03;11.01
39681;BME280;26327;42.550;23.120;2023-02-23T11:16:56;92605.63;;;38.49;11.05
39681;BME280;26327;42.550;23.120;2023-02-23T11:19:33;92601.78;;;40.95;10.06
39681;BME280;26327;42.550;23.120;2023-02-23T11:21:59;92535.19;;;40.88;9.28
39681;BME280;26327;42.550;23.120;2023-02-23T11:24:27;92574.59;;;41.49;9.31
39681;BME280;26327;42.550;23.120;2023-02-23T11:26:59;92602.25;;;41.51;9.32
39681;BME280;26327;42.550;23.120;2023-02-23T11:32:15;92599.22;;;42.22;8.58
39681;BME280;26327;42.550;23.120;2023-02-23T11:34:41;92593.06;;;42.47;8.37
39681;BME280;26327;42.550;23.120;2023-02-23T11:39:59;92546.50;;;37.80;10.85
39681;BME280;26327;42.550;23.120;2023-02-23T11:42:30;92582.63;;;36.55;11.36
39681;BME280;26327;42.550;23.120;2023-02-23T11:47:33;92561.91;;;37.76;11.06
39681;BME280;26327;42.550;23.120;2023-02-23T11:50:03;92543.72;;;36.91;11.67
39681;BME280;26327;42.550;23.120;2023-02-23T11:52:29;92583.41;;;34.62;12.77
39681;BME280;26327;42.550;23.120;2023-02-23T11:55:04;92567.50;;;33.40;13.56
39681;BME280;26327;42.550;23.120;2023-02-23T11:57:33;92561.63;;;33.17;14.34
39681;BME280;26327;42.550;23.120;2023-02-23T12:00:03;92577.13;;;33.71;13.15
39681;BME280;26327;42.550;23.120;2023-02-23T12:02:46;92516.63;;;32.21;13.73
39681;BME280;26327;42.550;23.120;2023-02-23T12:05:23;92557.16;;;30.33;14.76
39681;BME280;26327;42.550;23.120;2023-02-23T12:10:50;92582.88;;;26.52;17.12
39681;BME280;26327;42.550;23.120;2023-02-23T12:13:25;92576.28;;;25.18;18.22
39681;BME280;26327;42.550;23.120;2023-02-23T12:16:18;92571.94;;;23.78;19.86
39681;BME280;26327;42.550;23.120;2023-02-23T12:19:01;92580.16;;;22.43;21.56
39681;BME280;26327;42.550;23.120;2023-02-23T12:21:30;92504.81;;;21.61;22.55
39681;BME280;26327;42.550;23.120;2023-02-23T12:24:22;92578.38;;;22.69;22.57
39681;BME280;26327;42.550;23.120;2023-02-23T12:29:36;92488.03;;;22.50;22.06
39681;BME280;26327;42.550;23.120;2023-02-23T12:32:12;92558.63;;;23.07;22.34
39681;BME280;26327;42.550;23.120;2023-02-23T12:34:59;92529.91;;;22.68;22.01
39681;BME280;26327;42.550;23.120;2023-02-23T12:40:15;92559.47;;;23.28;21.68
39681;BME280;26327;42.550;23.120;2023-02-23T12:42:45;92544.31;;;23.03;21.47
39681;BME280;26327;42.550;23.120;2023-02-23T12:45:23;92551.97;;;22.16;22.30
39681;BME280;26327;42.550;23.120;2023-02-23T12:48:07;92545.75;;;21.53;22.62
39681;BME280;26327;42.550;23.120;2023-02-23T12:50:39;92558.06;;;21.38;22.99
39681;BME280;26327;42.550;23.120;2023-02-23T12:53:21;92533.97;;;21.29;23.95
39681;BME280;26327;42.550;23.120;2023-02-23T13:01:07;92498.84;;;21.33;22.94
39681;BME280;26327;42.550;23.120;2023-02-23T13:19:48;92537.75;;;20.57;25.75
39681;BME280;26327;42.550;23.120;2023-02-23T13:22:44;92552.88;;;20.67;25.91
39681;BME280;26327;42.550;23.120;2023-02-23T13:25:37;92473.78;;;19.79;28.58
39681;BME280;26327;42.550;23.120;2023-02-23T13:28:05;92553.13;;;20.22;28.61
39681;BME280;26327;42.550;23.120;2023-02-23T13:30:38;92485.97;;;19.64;29.72
39681;BME280;26327;42.550;23.120;2023-02-23T13:33:36;92555.72;;;19.95;28.76
39681;BME280;26327;42.550;23.120;2023-02-23T13:36:02;92535.66;;;19.22;30.35
39681;BME280;26327;42.550;23.120;2023-02-23T13:41:12;92499.63;;;18.77;30.89
39681;BME280;26327;42.550;23.120;2023-02-23T13:43:58;92550.94;;;18.91;31.73
39681;BME280;26327;42.550;23.120;2023-02-23T13:51:53;92547.13;;;18.42;32.66
39681;BME280;26327;42.550;23.120;2023-02-23T13:54:31;92562.97;;;18.30;32.67
39681;BME280;26327;42.550;23.120;2023-02-23T13:57:00;92497.41;;;17.72;33.70
39681;BME280;26327;42.550;23.120;2023-02-23T13:59:46;92559.50;;;17.89;33.77
39681;BME280;26327;42.550;23.120;2023-02-23T14:04:48;92537.28;;;17.69;34.28
39681;BME280;26327;42.550;23.120;2023-02-23T14:07:28;92526.84;;;17.39;35.29
39681;BME280;26327;42.550;23.120;2023-02-23T14:10:02;92521.94;;;17.30;35.29
39681;BME280;26327;42.550;23.120;2023-02-23T14:12:38;92538.59;;;17.48;35.48
39681;BME280;26327;42.550;23.120;2023-02-23T14:17:57;92551.41;;;17.44;35.49
39681;BME280;26327;42.550;23.120;2023-02-23T14:23:16;92547.88;;;17.39;35.63
39681;BME280;26327;42.550;23.120;2023-02-23T14:29:08;92545.59;;;17.30;35.82
39681;BME280;26327;42.550;23.120;2023-02-23T14:31:34;92488.03;;;16.94;35.96
39681;BME280;26327;42.550;23.120;2023-02-23T14:34:06;92478.66;;;16.86;36.81
39681;BME280;26327;42.550;23.120;2023-02-23T14:36:37;92446.34;;;16.62;37.42
39681;BME280;26327;42.550;23.120;2023-02-23T14:39:09;92532.34;;;17.25;37.03
39681;BME280;26327;42.550;23.120;2023-02-23T14:41:54;92537.81;;;17.24;37.12
39681;BME280;26327;42.550;23.120;2023-02-23T14:49:26;92538.16;;;17.16;37.39
39681;BME280;26327;42.550;23.120;2023-02-23T14:51:54;92525.78;;;16.93;37.67
39681;BME280;26327;42.550;23.120;2023-02-23T14:56:52;92547.19;;;17.08;37.54
39681;BME280;26327;42.550;23.120;2023-02-23T14:59:23;92541.66;;;16.98;37.35
39681;BME280;26327;42.550;23.120;2023-02-23T15:01:50;92534.81;;;16.85;37.61
39681;BME280;26327;42.550;23.120;2023-02-23T15:04:19;92548.38;;;16.94;36.73
39681;BME280;26327;42.550;23.120;2023-02-23T15:06:45;92538.44;;;16.73;37.31
39681;BME280;26327;42.550;23.120;2023-02-23T15:09:22;92530.09;;;16.76;37.82
39681;BME280;26327;42.550;23.120;2023-02-23T15:11:49;92545.25;;;16.14;39.89
39681;BME280;26327;42.550;23.120;2023-02-23T15:14:19;92545.72;;;15.74;40.77
39681;BME280;26327;42.550;23.120;2023-02-23T15:16:44;92539.41;;;15.38;42.25
39681;BME280;26327;42.550;23.120;2023-02-23T15:19:16;92539.63;;;15.12;43.14
39681;BME280;26327;42.550;23.120;2023-02-23T15:21:49;92482.75;;;14.58;44.35
39681;BME280;26327;42.550;23.120;2023-02-23T15:24:15;92556.78;;;15.08;44.27
39681;BME280;26327;42.550;23.120;2023-02-23T15:26:43;92484.19;;;14.78;43.56
39681;BME280;26327;42.550;23.120;2023-02-23T15:31:34;92427.72;;;14.21;44.21
39681;BME280;26327;42.550;23.120;2023-02-23T15:34:01;92560.69;;;14.74;44.98
39681;BME280;26327;42.550;23.120;2023-02-23T15:36:30;92524.41;;;14.14;46.42
39681;BME280;26327;42.550;23.120;2023-02-23T15:39:01;92560.72;;;14.29;46.55
39681;BME280;26327;42.550;23.120;2023-02-23T15:41:30;92493.75;;;13.52;47.54
39681;BME280;26327;42.550;23.120;2023-02-23T15:44:20;92569.75;;;13.89;48.55
39681;BME280;26327;42.550;23.120;2023-02-23T15:46:55;92560.94;;;13.76;48.19
39681;BME280;26327;42.550;23.120;2023-02-23T15:49:26;92447.34;;;12.89;48.65
39681;BME280;26327;42.550;23.120;2023-02-23T15:52:00;92576.09;;;13.41;49.82
39681;BME280;26327;42.550;23.120;2023-02-23T15:54:35;92512.72;;;12.81;50.60
39681;BME280;26327;42.550;23.120;2023-02-23T15:57:07;92573.69;;;13.00;51.91
39681;BME280;26327;42.550;23.120;2023-02-23T15:59:39;92572.50;;;12.89;52.13
39681;BME280;26327;42.550;23.120;2023-02-23T16:02:17;92536.78;;;12.57;52.41
39681;BME280;26327;42.550;23.120;2023-02-23T16:04:44;92529.56;;;12.52;52.37
39681;BME280;26327;42.550;23.120;2023-02-23T16:07:20;92588.94;;;12.90;52.17
39681;BME280;26327;42.550;23.120;2023-02-23T16:09:51;92591.34;;;12.78;52.70
39681;BME280;26327;42.550;23.120;2023-02-23T16:12:23;92517.47;;;12.12;53.34
39681;BME280;26327;42.550;23.120;2023-02-23T16:14:59;92596.09;;;12.42;53.82
39681;BME280;26327;42.550;23.120;2023-02-23T16:17:44;92536.25;;;11.94;54.20
39681;BME280;26327;42.550;23.120;2023-02-23T16:22:59;92603.22;;;12.13;54.85
39681;BME280;26327;42.550;23.120;2023-02-23T16:25:27;92616.22;;;12.07;55.23
39681;BME280;26327;42.550;23.120;2023-02-23T16:28:07;92566.56;;;11.74;55.63
39681;BME280;26327;42.550;23.120;2023-02-23T16:30:39;92614.78;;;11.97;55.34
39681;BME280;26327;42.550;23.120;2023-02-23T16:33:28;92602.59;;;11.70;56.00
39681;BME280;26327;42.550;23.120;2023-02-23T16:38:35;92623.69;;;11.82;55.28
39681;BME280;26327;42.550;23.120;2023-02-23T16:41:02;92606.16;;;11.62;54.94
39681;BME280;26327;42.550;23.120;2023-02-23T16:43:28;92633.38;;;11.60;55.38
39681;BME280;26327;42.550;23.120;2023-02-23T16:45:56;92631.56;;;11.60;54.95
39681;BME280;26327;42.550;23.120;2023-02-23T16:48:21;92550.81;;;11.06;55.17
39681;BME280;26327;42.550;23.120;2023-02-23T16:50:48;92629.09;;;11.46;55.16
39681;BME280;26327;42.550;23.120;2023-02-23T16:53:15;92634.25;;;11.39;55.23
39681;BME280;26327;42.550;23.120;2023-02-23T16:56:07;92652.28;;;11.41;55.08
39681;BME280;26327;42.550;23.120;2023-02-23T16:58:38;92618.94;;;11.29;54.95
39681;BME280;26327;42.550;23.120;2023-02-23T17:01:04;92650.31;;;11.49;54.74
39681;BME280;26327;42.550;23.120;2023-02-23T17:03:30;92650.59;;;11.33;55.49
39681;BME280;26327;42.550;23.120;2023-02-23T17:05:57;92654.69;;;11.42;54.85
39681;BME280;26327;42.550;23.120;2023-02-23T17:08:23;92652.47;;;11.39;54.74
39681;BME280;26327;42.550;23.120;2023-02-23T17:10:51;92643.97;;;11.30;54.67
39681;BME280;26327;42.550;23.120;2023-02-23T17:13:23;92658.16;;;11.56;54.59
39681;BME280;26327;42.550;23.120;2023-02-23T17:15:50;92580.47;;;11.18;54.48
39681;BME280;26327;42.550;23.120;2023-02-23T17:18:19;92655.78;;;11.61;54.61
39681;BME280;26327;42.550;23.120;2023-02-23T17:20:45;92541.13;;;10.93;53.94
39681;BME280;26327;42.550;23.120;2023-02-23T17:23:10;92659.22;;;11.68;54.89
39681;BME280;26327;42.550;23.120;2023-02-23T17:25:36;92579.56;;;11.32;53.94
39681;BME280;26327;42.550;23.120;2023-02-23T17:28:01;92668.69;;;11.76;54.94
39681;BME280;26327;42.550;23.120;2023-02-23T17:30:28;92677.06;;;11.71;54.88
39681;BME280;26327;42.550;23.120;2023-02-23T17:32:56;92612.28;;;11.20;56.44
39681;BME280;26327;42.550;23.120;2023-02-23T17:35:23;92696.91;;;11.72;55.56
39681;BME280;26327;42.550;23.120;2023-02-23T17:37:49;92667.22;;;11.66;56.49
39681;BME280;26327;42.550;23.120;2023-02-23T17:40:18;92685.75;;;11.78;57.04
39681;BME280;26327;42.550;23.120;2023-02-23T17:42:50;92610.56;;;11.34;57.07
39681;BME280;26327;42.550;23.120;2023-02-23T17:45:15;92672.66;;;11.72;56.82
39681;BME280;26327;42.550;23.120;2023-02-23T17:47:41;92663.41;;;11.62;57.16
39681;BME280;26327;42.550;23.120;2023-02-23T17:50:08;92619.53;;;11.25;56.93
39681;BME280;26327;42.550;23.120;2023-02-23T17:52:34;92561.31;;;10.91;57.47
39681;BME280;26327;42.550;23.120;2023-02-23T17:55:00;92691.88;;;11.71;57.96
39681;BME280;26327;42.550;23.120;2023-02-23T17:57:26;92619.16;;;11.28;57.95
39681;BME280;26327;42.550;23.120;2023-02-23T17:59:53;92669.41;;;11.63;59.02
39681;BME280;26327;42.550;23.120;2023-02-23T18:02:22;92609.22;;;11.10;59.63
39681;BME280;26327;42.550;23.120;2023-02-23T18:04:48;92680.41;;;11.58;59.44
39681;BME280;26327;42.550;23.120;2023-02-23T18:07:15;92658.47;;;11.40;60.02
39681;BME280;26327;42.550;23.120;2023-02-23T18:09:40;92658.50;;;11.46;59.33
39681;BME280;26327;42.550;23.120;2023-02-23T18:12:07;92684.16;;;11.49;59.87
39681;BME280;26327;42.550;23.120;2023-02-23T18:14:33;92694.94;;;11.46;60.19
39681;BME280;26327;42.550;23.120;2023-02-23T18:16:59;92628.09;;;10.91;60.82
39681;BME280;26327;42.550;23.120;2023-02-23T18:19:25;92695.56;;;11.27;61.38
39681;BME280;26327;42.550;23.120;2023-02-23T18:21:51;92685.38;;;11.04;62.31
39681;BME280;26327;42.550;23.120;2023-02-23T18:24:21;92634.63;;;10.65;62.85
39681;BME280;26327;42.550;23.120;2023-02-23T18:26:46;92689.22;;;11.08;62.20
39681;BME280;26327;42.550;23.120;2023-02-23T18:29:12;92686.13;;;10.98;62.59
39681;BME280;26327;42.550;23.120;2023-02-23T18:31:37;92659.88;;;10.71;63.50
39681;BME280;26327;42.550;23.120;2023-02-23T18:34:02;92644.22;;;10.65;63.18
39681;BME280;26327;42.550;23.120;2023-02-23T18:36:34;92714.03;;;10.89;64.61
39681;BME280;26327;42.550;23.120;2023-02-23T18:39:00;92632.75;;;10.38;65.05
39681;BME280;26327;42.550;23.120;2023-02-23T18:41:26;92681.84;;;10.69;64.93
39681;BME280;26327;42.550;23.120;2023-02-23T18:44:04;92720.75;;;10.84;65.01
39681;BME280;26327;42.550;23.120;2023-02-23T18:46:31;92705.59;;;10.66;65.62
39681;BME280;26327;42.550;23.120;2023-02-23T18:48:57;92721.44;;;10.71;66.08
39681;BME280;26327;42.550;23.120;2023-02-23T18:51:23;92712.31;;;9.95;69.46
39681;BME280;26327;42.550;23.120;2023-02-23T18:53:50;92601.38;;;9.38;69.88
39681;BME280;26327;42.550;23.120;2023-02-23T18:56:22;92638.94;;;9.27;70.13
39681;BME280;26327;42.550;23.120;2023-02-23T18:58:50;92719.53;;;9.70;71.40
39681;BME280;26327;42.550;23.120;2023-02-23T19:01:22;92662.34;;;9.34;72.55
39681;BME280;26327;42.550;23.120;2023-02-23T19:03:49;92657.63;;;9.37;71.79
39681;BME280;26327;42.550;23.120;2023-02-23T19:06:16;92723.75;;;9.71;72.37
39681;BME280;26327;42.550;23.120;2023-02-23T19:08:45;92728.56;;;9.74;72.14
39681;BME280;26327;42.550;23.120;2023-02-23T19:11:19;92740.38;;;9.76;71.50
39681;BME280;26327;42.550;23.120;2023-02-23T19:13:50;92724.56;;;9.71;71.83
39681;BME280;26327;42.550;23.120;2023-02-23T19:16:15;92748.88;;;9.85;72.08
39681;BME280;26327;42.550;23.120;2023-02-23T19:18:41;92740.47;;;9.68;72.47
39681;BME280;26327;42.550;23.120;2023-02-23T19:21:06;92691.78;;;9.41;72.75
39681;BME280;26327;42.550;23.120;2023-02-23T19:23:32;92677.72;;;9.35;72.86
39681;BME280;26327;42.550;23.120;2023-02-23T19:25:57;92694.13;;;9.65;72.12
39681;BME280;26327;42.550;23.120;2023-02-23T19:28:26;92744.16;;;9.89;72.52
39681;BME280;26327;42.550;23.120;2023-02-23T19:31:00;92708.44;;;9.61;73.00
39681;BME280;26327;42.550;23.120;2023-02-23T19:33:26;92761.31;;;9.75;73.17
39681;BME280;26327;42.550;23.120;2023-02-23T19:35:51;92759.44;;;9.84;72.88
39681;BME280;26327;42.550;23.120;2023-02-23T19:38:16;92701.34;;;9.40;72.91
39681;BME280;26327;42.550;23.120;2023-02-23T19:40:42;92742.59;;;9.50;72.55
39681;BME280;26327;42.550;23.120;2023-02-23T19:43:08;92772.66;;;9.22;75.35
39681;BME280;26327;42.550;23.120;2023-02-23T19:45:36;92746.34;;;9.10;75.80
39681;BME280;26327;42.550;23.120;2023-02-23T19:48:02;92704.88;;;8.87;75.62
